createdAt,value
2023-05-05T00:00:12.277Z,91.64
2023-05-05T00:01:12.254Z,91.85
2023-05-05T00:02:12.272Z,91.85
2023-05-05T00:03:12.285Z,91.95
2023-05-05T00:04:12.242Z,92.25
2023-05-05T00:05:12.198Z,92.25
2023-05-05T00:06:12.185Z,92.36
2023-05-05T00:07:12.172Z,92.25
2023-05-05T00:08:12.185Z,92.25
2023-05-05T00:09:12.137Z,92.15
2023-05-05T00:10:12.129Z,92.05
2023-05-05T00:11:12.123Z,92.15
2023-05-05T00:12:12.101Z,92.25
2023-05-05T00:13:12.139Z,92.15
2023-05-05T00:14:12.100Z,92.36
2023-05-05T00:15:12.055Z,92.36
2023-05-05T00:16:12.052Z,92.36
2023-05-05T00:17:12.120Z,92.36
2023-05-05T00:18:12.018Z,92.25
2023-05-05T00:19:12.016Z,92.15
2023-05-05T00:20:11.997Z,92.25
2023-05-05T00:21:11.983Z,92.25
2023-05-05T00:22:11.969Z,92.05
2023-05-05T00:23:11.957Z,92.15
2023-05-05T00:24:11.999Z,92.36
2023-05-05T00:25:11.934Z,92.46
2023-05-05T00:26:11.927Z,92.46
2023-05-05T00:27:11.908Z,92.50
2023-05-05T00:28:11.891Z,92.40
2023-05-05T00:29:11.880Z,92.50
2023-05-05T00:30:11.860Z,92.71
2023-05-05T00:31:11.874Z,92.91
2023-05-05T00:32:11.844Z,93.01
2023-05-05T00:33:11.832Z,92.81
2023-05-05T00:34:11.810Z,92.81
2023-05-05T00:35:11.802Z,92.71
2023-05-05T00:36:11.784Z,92.60
2023-05-05T00:37:11.779Z,92.71
2023-05-05T00:38:11.789Z,92.71
2023-05-05T00:39:11.748Z,92.91
2023-05-05T00:40:11.775Z,93.01
2023-05-05T00:41:11.722Z,93.12
2023-05-05T00:42:11.718Z,93.22
2023-05-05T00:43:11.688Z,93.22
2023-05-05T00:44:11.705Z,93.18
2023-05-05T00:45:11.677Z,92.87
2023-05-05T00:46:11.687Z,92.81
2023-05-05T00:47:11.648Z,92.77
2023-05-05T00:48:11.667Z,92.87
2023-05-05T00:49:11.658Z,92.97
2023-05-05T00:50:11.624Z,92.97
2023-05-05T00:51:11.597Z,92.77
2023-05-05T00:52:11.588Z,92.46
2023-05-05T00:53:11.574Z,92.10
2023-05-05T00:54:11.553Z,92.05
2023-05-05T00:55:11.540Z,92.19
2023-05-05T00:56:11.552Z,92.40
2023-05-05T00:57:11.532Z,92.50
2023-05-05T00:58:11.513Z,92.40
2023-05-05T00:59:11.490Z,92.50
2023-05-05T01:00:11.484Z,92.50
2023-05-05T01:01:11.528Z,92.55
2023-05-05T01:02:11.465Z,92.44
2023-05-05T01:03:11.560Z,92.55
2023-05-05T01:04:11.432Z,92.85
2023-05-05T01:05:11.415Z,93.06
2023-05-05T01:06:11.398Z,93.16
2023-05-05T01:07:11.383Z,93.16
2023-05-05T01:08:11.376Z,93.26
2023-05-05T01:09:11.366Z,93.37
2023-05-05T01:10:18.849Z,93.37
2023-05-05T01:11:12.373Z,93.47
2023-05-05T01:12:11.360Z,93.47
2023-05-05T01:13:11.390Z,93.52
2023-05-05T01:14:11.298Z,93.63
2023-05-05T01:15:11.298Z,93.52
2023-05-05T01:16:11.321Z,93.22
2023-05-05T01:17:11.267Z,93.01
2023-05-05T01:18:11.251Z,92.91
2023-05-05T01:19:11.245Z,92.96
2023-05-05T01:20:11.278Z,93.16
2023-05-05T01:21:11.204Z,93.06
2023-05-05T01:22:11.197Z,92.85
2023-05-05T01:23:11.182Z,92.85
2023-05-05T01:24:11.189Z,93.06
2023-05-05T01:25:11.154Z,93.16
2023-05-05T01:26:11.146Z,93.47
2023-05-05T01:27:11.126Z,93.57
2023-05-05T01:28:11.144Z,93.67
2023-05-05T01:29:11.102Z,93.77
2023-05-05T01:30:11.087Z,93.67
2023-05-05T01:31:11.095Z,93.52
2023-05-05T01:32:11.070Z,93.52
2023-05-05T01:33:11.045Z,93.43
2023-05-05T01:34:11.049Z,93.22
2023-05-05T01:35:11.021Z,93.22
2023-05-05T01:36:11.009Z,93.32
2023-05-05T01:37:11.001Z,93.37
2023-05-05T01:38:10.986Z,93.37
2023-05-05T01:39:10.973Z,93.37
2023-05-05T01:40:10.970Z,93.26
2023-05-05T01:41:10.958Z,93.26
2023-05-05T01:42:10.938Z,93.37
2023-05-05T01:43:10.924Z,93.47
2023-05-05T01:44:11.030Z,93.57
2023-05-05T01:45:10.917Z,93.67
2023-05-05T01:46:10.996Z,93.77
2023-05-05T01:47:10.883Z,93.88
2023-05-05T01:48:10.852Z,93.98
2023-05-05T01:49:10.840Z,93.77
2023-05-05T01:50:10.830Z,93.67
2023-05-05T01:51:10.840Z,93.67
2023-05-05T01:52:10.803Z,93.77
2023-05-05T01:53:10.801Z,93.98
2023-05-05T01:54:10.794Z,93.88
2023-05-05T01:55:10.761Z,93.77
2023-05-05T01:56:10.756Z,93.88
2023-05-05T01:57:10.736Z,93.98
2023-05-05T01:58:10.731Z,94.08
2023-05-05T01:59:10.719Z,93.98
2023-05-05T02:00:10.808Z,93.92
2023-05-05T02:01:10.708Z,93.92
2023-05-05T02:02:10.740Z,93.82
2023-05-05T02:03:10.772Z,93.82
2023-05-05T02:04:10.660Z,94.02
2023-05-05T02:05:10.630Z,94.12
2023-05-05T02:06:10.626Z,94.23
2023-05-05T02:07:10.608Z,94.07
2023-05-05T02:08:10.603Z,93.96
2023-05-05T02:09:10.595Z,94.17
2023-05-05T02:10:10.677Z,94.48
2023-05-05T02:11:10.566Z,94.58
2023-05-05T02:12:10.544Z,94.48
2023-05-05T02:13:10.624Z,94.37
2023-05-05T02:14:10.530Z,94.58
2023-05-05T02:15:10.515Z,94.78
2023-05-05T02:16:10.550Z,94.84
2023-05-05T02:17:10.501Z,94.74
2023-05-05T02:18:10.472Z,94.64
2023-05-05T02:19:10.455Z,94.54
2023-05-05T02:20:10.507Z,94.43
2023-05-05T02:21:10.436Z,94.33
2023-05-05T02:22:10.419Z,94.33
2023-05-05T02:23:10.410Z,94.17
2023-05-05T02:24:10.393Z,94.17
2023-05-05T02:25:10.392Z,94.17
2023-05-05T02:26:10.377Z,94.37
2023-05-05T02:27:10.368Z,94.58
2023-05-05T02:28:10.342Z,94.78
2023-05-05T02:29:10.343Z,94.89
2023-05-05T02:30:10.512Z,94.78
2023-05-05T02:31:10.359Z,94.78
2023-05-05T02:32:10.328Z,95.03
2023-05-05T02:33:10.284Z,95.09
2023-05-05T02:34:10.274Z,95.14
2023-05-05T02:35:10.266Z,94.93
2023-05-05T02:36:10.255Z,94.93
2023-05-05T02:37:10.243Z,94.83
2023-05-05T02:38:10.227Z,94.73
2023-05-05T02:39:10.219Z,94.73
2023-05-05T02:40:10.383Z,94.73
2023-05-05T02:41:10.186Z,94.83
2023-05-05T02:42:10.167Z,95.14
2023-05-05T02:43:10.175Z,95.34
2023-05-05T02:44:10.141Z,95.65
2023-05-05T02:45:10.130Z,95.86
2023-05-05T02:46:10.152Z,95.70
2023-05-05T02:47:10.114Z,95.61
2023-05-05T02:48:10.150Z,95.61
2023-05-05T02:49:10.078Z,95.61
2023-05-05T02:50:10.322Z,95.50
2023-05-05T02:51:10.060Z,95.40
2023-05-05T02:52:10.042Z,95.09
2023-05-05T02:53:10.041Z,94.99
2023-05-05T02:54:10.016Z,94.89
2023-05-05T02:55:09.996Z,94.99
2023-05-05T02:56:09.998Z,95.09
2023-05-05T02:57:09.974Z,94.99
2023-05-05T02:58:09.964Z,94.89
2023-05-05T02:59:09.957Z,95.09
2023-05-05T03:00:10.127Z,95.20
2023-05-05T03:01:09.959Z,95.29
2023-05-05T03:02:09.902Z,95.29
2023-05-05T03:03:09.972Z,95.24
2023-05-05T03:04:09.926Z,95.24
2023-05-05T03:05:09.866Z,95.20
2023-05-05T03:06:09.862Z,95.29
2023-05-05T03:07:09.850Z,95.29
2023-05-05T03:08:09.837Z,95.50
2023-05-05T03:09:09.813Z,95.70
2023-05-05T03:10:10.140Z,95.70
2023-05-05T03:11:09.789Z,95.81
2023-05-05T03:12:09.795Z,95.81
2023-05-05T03:13:09.868Z,95.81
2023-05-05T03:14:09.750Z,95.91
2023-05-05T03:15:09.739Z,95.91
2023-05-05T03:16:09.757Z,95.81
2023-05-05T03:17:09.717Z,95.81
2023-05-05T03:18:09.707Z,95.91
2023-05-05T03:19:09.703Z,96.01
2023-05-05T03:20:09.835Z,96.12
2023-05-05T03:21:09.658Z,95.91
2023-05-05T03:22:09.652Z,95.70
2023-05-05T03:23:09.643Z,95.81
2023-05-05T03:24:09.624Z,95.61
2023-05-05T03:25:09.619Z,95.50
2023-05-05T03:26:09.595Z,95.40
2023-05-05T03:27:09.581Z,95.61
2023-05-05T03:28:09.568Z,95.70
2023-05-05T03:29:09.555Z,95.91
2023-05-05T03:30:09.824Z,96.12
2023-05-05T03:31:09.528Z,96.12
2023-05-05T03:32:09.626Z,96.12
2023-05-05T03:33:09.592Z,96.22
2023-05-05T03:34:09.523Z,96.17
2023-05-05T03:35:09.489Z,96.12
2023-05-05T03:36:09.501Z,96.12
2023-05-05T03:37:09.458Z,96.22
2023-05-05T03:38:09.450Z,96.12
2023-05-05T03:39:09.439Z,96.07
2023-05-05T03:40:09.663Z,96.07
2023-05-05T03:41:09.405Z,96.07
2023-05-05T03:42:09.471Z,96.07
2023-05-05T03:43:09.381Z,96.07
2023-05-05T03:44:09.373Z,96.07
2023-05-05T03:45:09.347Z,96.07
2023-05-05T03:46:09.374Z,96.07
2023-05-05T03:47:09.331Z,96.17
2023-05-05T03:48:09.401Z,96.07
2023-05-05T03:49:09.299Z,96.07
2023-05-05T03:50:09.441Z,96.07
2023-05-05T03:51:09.292Z,95.97
2023-05-05T03:52:09.288Z,95.56
2023-05-05T03:53:09.253Z,95.46
2023-05-05T03:54:09.235Z,95.46
2023-05-05T03:55:09.238Z,95.36
2023-05-05T03:56:09.224Z,95.46
2023-05-05T03:57:09.206Z,95.56
2023-05-05T03:58:09.195Z,95.66
2023-05-05T03:59:09.180Z,95.87
2023-05-05T04:00:09.311Z,95.97
2023-05-05T04:01:09.152Z,95.97
2023-05-05T04:02:09.168Z,96.07
2023-05-05T04:03:09.310Z,96.17
2023-05-05T04:04:09.170Z,96.17
2023-05-05T04:05:09.096Z,96.17
2023-05-05T04:06:09.092Z,96.17
2023-05-05T04:07:09.076Z,96.17
2023-05-05T04:08:09.081Z,95.97
2023-05-05T04:09:09.048Z,95.97
2023-05-05T04:10:09.284Z,95.97
2023-05-05T04:11:09.025Z,95.97
2023-05-05T04:12:09.015Z,95.97
2023-05-05T04:13:09.027Z,95.87
2023-05-05T04:14:08.992Z,95.97
2023-05-05T04:15:08.976Z,96.07
2023-05-05T04:16:09.006Z,96.07
2023-05-05T04:17:08.940Z,96.07
2023-05-05T04:18:08.977Z,96.07
2023-05-05T04:19:08.916Z,96.07
2023-05-05T04:20:09.132Z,96.17
2023-05-05T04:21:08.886Z,96.28
2023-05-05T04:22:08.875Z,96.38
2023-05-05T04:23:08.866Z,96.38
2023-05-05T04:24:08.889Z,96.48
2023-05-05T04:25:08.839Z,96.38
2023-05-05T04:26:08.835Z,96.17
2023-05-05T04:27:08.822Z,95.97
2023-05-05T04:28:08.803Z,95.82
2023-05-05T04:29:08.782Z,95.72
2023-05-05T04:30:08.975Z,95.72
2023-05-05T04:31:08.803Z,95.72
2023-05-05T04:32:08.752Z,95.82
2023-05-05T04:33:08.744Z,95.82
2023-05-05T04:34:08.727Z,95.82
2023-05-05T04:35:08.728Z,95.92
2023-05-05T04:36:08.694Z,96.03
2023-05-05T04:37:08.684Z,95.92
2023-05-05T04:38:08.675Z,95.82
2023-05-05T04:39:08.673Z,95.92
2023-05-05T04:40:08.883Z,95.92
2023-05-05T04:41:08.644Z,95.88
2023-05-05T04:42:08.612Z,95.21
2023-05-05T04:43:08.608Z,94.70
2023-05-05T04:44:08.592Z,94.49
2023-05-05T04:45:08.589Z,94.59
2023-05-05T04:46:08.596Z,94.59
2023-05-05T04:47:08.554Z,94.65
2023-05-05T04:48:08.558Z,94.96
2023-05-05T04:49:08.532Z,94.85
2023-05-05T04:50:08.952Z,94.85
2023-05-05T04:51:08.501Z,94.75
2023-05-05T04:52:08.501Z,94.85
2023-05-05T04:53:08.477Z,94.85
2023-05-05T04:54:08.457Z,94.85
2023-05-05T04:55:08.458Z,94.96
2023-05-05T04:56:08.467Z,94.85
2023-05-05T04:57:08.425Z,94.75
2023-05-05T04:58:08.437Z,94.65
2023-05-05T04:59:08.390Z,94.51
2023-05-05T05:00:08.594Z,94.40
2023-05-05T05:01:08.364Z,94.40
2023-05-05T05:02:08.427Z,94.40
2023-05-05T05:03:08.437Z,94.20
2023-05-05T05:04:08.329Z,93.99
2023-05-05T05:05:08.322Z,93.18
2023-05-05T05:06:08.317Z,92.87
2023-05-05T05:07:08.292Z,93.07
2023-05-05T05:08:08.276Z,93.18
2023-05-05T05:09:08.261Z,93.33
2023-05-05T05:10:08.509Z,93.44
2023-05-05T05:11:08.241Z,93.44
2023-05-05T05:12:08.248Z,93.44
2023-05-05T05:13:09.165Z,93.33
2023-05-05T05:14:08.200Z,93.33
2023-05-05T05:15:08.183Z,93.09
2023-05-05T05:16:08.177Z,92.88
2023-05-05T05:17:08.153Z,92.47
2023-05-05T05:18:08.167Z,92.27
2023-05-05T05:19:08.139Z,91.96
2023-05-05T05:20:08.435Z,91.92
2023-05-05T05:21:08.131Z,92.02
2023-05-05T05:22:08.092Z,91.92
2023-05-05T05:23:08.079Z,91.57
2023-05-05T05:24:08.065Z,90.71
2023-05-05T05:25:08.056Z,90.00
2023-05-05T05:26:08.033Z,89.69
2023-05-05T05:27:09.999Z,89.39
2023-05-05T05:28:10.799Z,88.88
2023-05-05T05:29:08.007Z,88.78
2023-05-05T05:30:08.143Z,88.53
2023-05-05T05:31:07.979Z,88.93
2023-05-05T05:32:07.984Z,89.25
2023-05-05T05:33:08.006Z,88.49
2023-05-05T05:34:07.934Z,88.49
2023-05-05T05:35:07.918Z,88.49
2023-05-05T05:36:07.915Z,88.59
2023-05-05T05:37:07.914Z,88.93
2023-05-05T05:38:07.889Z,88.90
2023-05-05T05:39:07.870Z,88.63
2023-05-05T05:40:08.112Z,88.43
2023-05-05T05:41:07.878Z,88.69
2023-05-05T05:42:07.870Z,88.18
2023-05-05T05:43:07.856Z,88.32
2023-05-05T05:44:07.832Z,88.53
2023-05-05T05:45:07.783Z,88.73
2023-05-05T05:46:09.338Z,89.14
2023-05-05T05:47:07.773Z,89.34
2023-05-05T05:48:07.815Z,89.45
2023-05-05T05:49:07.746Z,89.55
2023-05-05T05:50:07.932Z,89.65
2023-05-05T05:51:07.718Z,89.75
2023-05-05T05:52:07.710Z,89.86
2023-05-05T05:53:07.705Z,89.86
2023-05-05T05:54:07.682Z,89.86
2023-05-05T05:55:07.654Z,90.06
2023-05-05T05:56:07.652Z,90.06
2023-05-05T05:57:07.657Z,90.16
2023-05-05T05:58:07.634Z,89.75
2023-05-05T05:59:07.608Z,90.06
2023-05-05T06:00:07.962Z,90.41
2023-05-05T06:01:07.578Z,90.61
2023-05-05T06:02:07.590Z,90.71
2023-05-05T06:03:07.810Z,90.92
2023-05-05T06:04:07.715Z,91.02
2023-05-05T06:05:07.556Z,91.02
2023-05-05T06:06:07.535Z,91.12
2023-05-05T06:07:07.500Z,91.02
2023-05-05T06:08:07.490Z,91.22
2023-05-05T06:09:07.478Z,91.33
2023-05-05T06:10:22.625Z,90.81
2023-05-05T06:11:08.474Z,90.61
2023-05-05T06:12:07.427Z,90.20
2023-05-05T06:13:07.478Z,89.90
2023-05-05T06:14:07.404Z,90.31
2023-05-05T06:15:07.395Z,90.92
2023-05-05T06:16:07.423Z,91.53
2023-05-05T06:17:07.376Z,91.74
2023-05-05T06:18:07.386Z,91.83
2023-05-05T06:19:07.347Z,92.14
2023-05-05T06:20:07.595Z,92.24
2023-05-05T06:21:07.322Z,92.10
2023-05-05T06:22:07.298Z,91.63
2023-05-05T06:23:07.284Z,91.53
2023-05-05T06:24:07.298Z,91.63
2023-05-05T06:25:07.263Z,91.74
2023-05-05T06:26:07.263Z,91.94
2023-05-05T06:27:07.249Z,92.20
2023-05-05T06:28:07.262Z,92.00
2023-05-05T06:29:07.232Z,92.00
2023-05-05T06:30:07.568Z,91.59
2023-05-05T06:31:07.212Z,91.39
2023-05-05T06:32:07.197Z,90.77
2023-05-05T06:33:07.212Z,90.63
2023-05-05T06:34:07.154Z,90.42
2023-05-05T06:35:07.151Z,90.12
2023-05-05T06:36:07.159Z,89.77
2023-05-05T06:37:07.112Z,89.57
2023-05-05T06:38:07.101Z,88.51
2023-05-05T06:39:07.076Z,88.20
2023-05-05T06:40:07.323Z,88.10
2023-05-05T06:41:07.057Z,87.55
2023-05-05T06:42:07.043Z,87.30
2023-05-05T06:43:07.028Z,86.90
2023-05-05T06:44:07.023Z,86.25
2023-05-05T06:45:07.005Z,86.10
2023-05-05T06:46:06.988Z,86.10
2023-05-05T06:47:07.063Z,85.46
2023-05-05T06:48:07.101Z,85.55
2023-05-05T06:49:06.950Z,84.44
2023-05-05T06:50:07.335Z,84.40
2023-05-05T06:51:06.932Z,82.81
2023-05-05T06:52:06.922Z,82.81
2023-05-05T06:53:06.896Z,82.37
2023-05-05T06:54:06.900Z,82.67
2023-05-05T06:55:06.904Z,82.53
2023-05-05T06:56:06.868Z,81.62
2023-05-05T06:57:06.839Z,81.01
2023-05-05T06:58:06.837Z,80.77
2023-05-05T06:59:06.811Z,81.04
2023-05-05T07:00:07.366Z,80.02
2023-05-05T07:01:06.833Z,77.69
2023-05-05T07:02:06.792Z,77.75
2023-05-05T07:03:06.854Z,77.95
2023-05-05T07:04:07.192Z,78.26
2023-05-05T07:05:06.758Z,79.24
2023-05-05T07:06:06.733Z,80.05
2023-05-05T07:07:06.718Z,79.74
2023-05-05T07:08:06.709Z,79.94
2023-05-05T07:09:06.766Z,78.97
2023-05-05T07:10:06.918Z,78.77
2023-05-05T07:11:06.661Z,78.91
2023-05-05T07:12:06.671Z,79.72
2023-05-05T07:13:06.720Z,80.02
2023-05-05T07:14:06.630Z,80.93
2023-05-05T07:15:19.103Z,80.53
2023-05-05T07:16:07.681Z,80.32
2023-05-05T07:17:06.601Z,80.63
2023-05-05T07:18:06.646Z,80.63
2023-05-05T07:19:06.577Z,80.66
2023-05-05T07:20:06.894Z,80.26
2023-05-05T07:21:06.554Z,80.77
2023-05-05T07:22:06.523Z,80.93
2023-05-05T07:23:06.508Z,81.74
2023-05-05T07:24:06.517Z,81.85
2023-05-05T07:25:06.485Z,81.95
2023-05-05T07:26:06.477Z,81.34
2023-05-05T07:27:06.460Z,80.73
2023-05-05T07:28:06.457Z,80.73
2023-05-05T07:29:06.436Z,80.02
2023-05-05T07:30:11.204Z,79.61
2023-05-05T07:31:07.463Z,79.61
2023-05-05T07:32:06.439Z,79.96
2023-05-05T07:33:06.397Z,80.83
2023-05-05T07:34:06.382Z,80.53
2023-05-05T07:35:06.353Z,80.79
2023-05-05T07:36:06.450Z,81.50
2023-05-05T07:37:06.326Z,81.37
2023-05-05T07:38:06.942Z,79.60
2023-05-05T07:39:06.307Z,78.96
2023-05-05T07:40:06.569Z,78.82
2023-05-05T07:41:06.280Z,77.34
2023-05-05T07:42:06.286Z,77.54
2023-05-05T07:43:06.260Z,77.44
2023-05-05T07:44:06.233Z,77.44
2023-05-05T07:45:06.226Z,78.42
2023-05-05T07:46:06.274Z,79.33
2023-05-05T07:47:07.081Z,78.78
2023-05-05T07:48:06.239Z,74.93
2023-05-05T07:49:06.179Z,71.73
2023-05-05T07:50:06.625Z,68.05
2023-05-05T07:51:06.152Z,64.98
2023-05-05T07:52:06.268Z,61.46
2023-05-05T07:53:14.242Z,60.05
2023-05-05T07:54:07.147Z,56.01
2023-05-05T07:55:06.108Z,55.90
2023-05-05T07:56:06.101Z,54.08
2023-05-05T07:57:06.065Z,52.76
2023-05-05T07:58:06.054Z,53.98
2023-05-05T07:59:06.050Z,54.26
2023-05-05T08:00:06.256Z,55.80
2023-05-05T08:01:06.039Z,56.79
2023-05-05T08:02:06.029Z,58.71
2023-05-05T08:03:07.724Z,59.04
2023-05-05T08:04:06.024Z,60.06
2023-05-05T08:05:06.288Z,60.92
2023-05-05T08:06:05.960Z,61.35
2023-05-05T08:07:05.950Z,62.92
2023-05-05T08:08:06.055Z,64.31
2023-05-05T08:09:05.918Z,64.25
2023-05-05T08:10:05.903Z,63.67
2023-05-05T08:11:05.934Z,64.61
2023-05-05T08:12:05.897Z,66.47
2023-05-05T08:13:05.885Z,67.55
2023-05-05T08:14:05.867Z,68.82
2023-05-05T08:15:06.079Z,69.82
2023-05-05T08:16:05.862Z,70.56
2023-05-05T08:17:05.827Z,71.60
2023-05-05T08:18:05.827Z,71.40
2023-05-05T08:19:14.591Z,72.14
2023-05-05T08:20:06.817Z,72.31
2023-05-05T08:21:05.777Z,71.13
2023-05-05T08:22:05.756Z,71.50
2023-05-05T08:23:05.743Z,71.26
2023-05-05T08:24:05.889Z,69.15
2023-05-05T08:25:05.927Z,68.45
2023-05-05T08:26:05.699Z,67.94
2023-05-05T08:27:05.694Z,67.58
2023-05-05T08:28:05.690Z,67.48
2023-05-05T08:29:05.659Z,68.25
2023-05-05T08:30:05.658Z,68.22
2023-05-05T08:31:05.747Z,66.52
2023-05-05T08:32:05.629Z,69.22
2023-05-05T08:33:05.629Z,67.32
2023-05-05T08:34:05.623Z,67.22
2023-05-05T08:35:05.671Z,67.02
2023-05-05T08:36:05.572Z,67.08
2023-05-05T08:37:05.558Z,66.41
2023-05-05T08:38:05.549Z,68.05
2023-05-05T08:39:05.531Z,68.18
2023-05-05T08:40:05.607Z,68.32
2023-05-05T08:41:05.515Z,69.06
2023-05-05T08:42:05.492Z,70.50
2023-05-05T08:43:05.476Z,70.19
2023-05-05T08:44:05.463Z,70.79
2023-05-05T08:45:05.801Z,71.13
2023-05-05T08:46:05.443Z,71.83
2023-05-05T08:47:05.509Z,71.53
2023-05-05T08:48:05.537Z,71.53
2023-05-05T08:49:05.402Z,72.91
2023-05-05T08:50:05.396Z,72.77
2023-05-05T08:51:05.726Z,72.20
2023-05-05T08:52:05.353Z,70.76
2023-05-05T08:53:05.497Z,70.89
2023-05-05T08:54:05.326Z,71.09
2023-05-05T08:55:05.369Z,71.40
2023-05-05T08:56:05.463Z,71.60
2023-05-05T08:57:05.296Z,71.77
2023-05-05T08:58:05.292Z,71.77
2023-05-05T08:59:05.258Z,73.68
2023-05-05T09:00:05.264Z,71.26
2023-05-05T09:01:05.292Z,70.86
2023-05-05T09:02:05.283Z,70.86
2023-05-05T09:03:05.293Z,70.96
2023-05-05T09:04:05.193Z,70.66
2023-05-05T09:06:05.167Z,73.27
2023-05-05T09:07:05.166Z,71.83
2023-05-05T09:08:05.146Z,70.63
2023-05-05T09:09:05.123Z,71.03
2023-05-05T09:10:05.120Z,70.09
2023-05-05T09:11:05.115Z,71.09
2023-05-05T09:12:05.223Z,71.70
2023-05-05T09:13:05.158Z,72.71
2023-05-05T09:14:05.073Z,71.30
2023-05-05T09:15:05.344Z,70.86
2023-05-05T09:16:05.040Z,70.66
2023-05-05T09:17:05.164Z,69.85
2023-05-05T09:18:05.065Z,69.12
2023-05-05T09:19:05.004Z,70.12
2023-05-05T09:20:04.982Z,68.52
2023-05-05T09:21:04.979Z,68.89
2023-05-05T09:22:04.957Z,66.91
2023-05-05T09:23:04.953Z,67.02
2023-05-05T09:24:08.117Z,68.42
2023-05-05T09:25:04.974Z,69.42
2023-05-05T09:26:04.929Z,66.24
2023-05-05T09:27:04.905Z,65.64
2023-05-05T09:28:05.033Z,67.11
2023-05-05T09:29:04.878Z,64.40
2023-05-05T09:30:04.869Z,65.21
2023-05-05T09:31:04.885Z,68.19
2023-05-05T09:32:04.836Z,68.79
2023-05-05T09:33:04.842Z,68.85
2023-05-05T09:34:04.804Z,66.55
2023-05-05T09:35:04.799Z,65.65
2023-05-05T09:36:04.800Z,64.84
2023-05-05T09:37:04.781Z,63.75
2023-05-05T09:38:04.756Z,65.95
2023-05-05T09:39:04.747Z,64.45
2023-05-05T09:40:04.749Z,64.65
2023-05-05T09:41:04.718Z,66.75
2023-05-05T09:42:04.735Z,67.65
2023-05-05T09:43:04.714Z,66.75
2023-05-05T09:44:04.853Z,66.05
2023-05-05T09:45:04.679Z,65.12
2023-05-05T09:46:04.722Z,67.02
2023-05-05T09:47:09.447Z,66.28
2023-05-05T09:48:05.661Z,64.48
2023-05-05T09:49:04.609Z,62.78
2023-05-05T09:50:04.663Z,61.88
2023-05-05T09:51:04.594Z,61.58
2023-05-05T09:52:04.571Z,63.92
2023-05-05T09:53:04.568Z,65.42
2023-05-05T09:54:04.555Z,65.22
2023-05-05T09:55:04.553Z,64.62
2023-05-05T09:56:04.525Z,64.42
2023-05-05T09:57:04.515Z,63.75
2023-05-05T09:58:04.546Z,65.55
2023-05-05T09:59:04.492Z,63.01
2023-05-05T10:00:04.600Z,61.74
2023-05-05T10:01:04.481Z,63.24
2023-05-05T10:02:04.445Z,62.71
2023-05-05T10:03:04.479Z,65.92
2023-05-05T10:04:04.417Z,64.12
2023-05-05T10:05:04.448Z,64.28
2023-05-05T10:06:04.396Z,63.51
2023-05-05T10:07:04.396Z,61.98
2023-05-05T10:08:04.368Z,62.88
2023-05-05T10:09:04.373Z,61.95
2023-05-05T10:10:04.357Z,62.98
2023-05-05T10:11:04.323Z,63.56
2023-05-05T10:12:04.316Z,62.25
2023-05-05T10:13:04.358Z,63.89
2023-05-05T10:14:04.296Z,63.39
2023-05-05T10:15:04.274Z,63.08
2023-05-05T10:16:04.551Z,62.35
2023-05-05T10:17:04.251Z,61.68
2023-05-05T10:18:08.252Z,61.28
2023-05-05T10:19:04.262Z,60.98
2023-05-05T10:20:04.229Z,62.78
2023-05-05T10:21:04.322Z,63.08
2023-05-05T10:22:04.200Z,62.71
2023-05-05T10:23:04.188Z,62.31
2023-05-05T10:24:04.169Z,63.61
2023-05-05T10:25:04.180Z,61.81
2023-05-05T10:26:04.132Z,64.31
2023-05-05T10:27:04.145Z,65.01
2023-05-05T10:28:04.126Z,64.31
2023-05-05T10:29:04.125Z,64.92
2023-05-05T10:30:04.088Z,64.28
2023-05-05T10:31:12.888Z,63.78
2023-05-05T10:32:21.464Z,63.78
2023-05-05T10:33:18.497Z,63.08
2023-05-05T10:34:05.136Z,65.16
2023-05-05T10:35:04.039Z,62.95
2023-05-05T10:36:04.021Z,63.65
2023-05-05T10:37:04.007Z,61.75
2023-05-05T10:38:03.977Z,62.15
2023-05-05T10:39:04.008Z,63.72
2023-05-05T10:40:03.952Z,61.82
2023-05-05T10:41:03.952Z,61.32
2023-05-05T10:42:03.945Z,62.32
2023-05-05T10:43:03.917Z,62.32
2023-05-05T10:44:04.697Z,61.02
2023-05-05T10:45:03.969Z,62.52
2023-05-05T10:46:03.920Z,61.42
2023-05-05T10:47:03.872Z,60.22
2023-05-05T10:48:04.091Z,62.25
2023-05-05T10:49:03.861Z,60.55
2023-05-05T10:50:03.836Z,59.15
2023-05-05T10:51:03.820Z,57.68
2023-05-05T10:52:03.817Z,59.20
2023-05-05T10:53:03.824Z,60.21
2023-05-05T10:54:03.812Z,60.98
2023-05-05T10:55:03.773Z,61.48
2023-05-05T10:56:03.770Z,60.18
2023-05-05T10:57:03.743Z,59.58
2023-05-05T10:58:03.737Z,61.28
2023-05-05T10:59:03.716Z,60.51
2023-05-05T11:00:03.703Z,60.31
2023-05-05T11:01:03.780Z,63.51
2023-05-05T11:02:03.734Z,63.81
2023-05-05T11:03:03.796Z,63.51
2023-05-05T11:04:03.726Z,63.61
2023-05-05T11:05:03.647Z,60.61
2023-05-05T11:06:03.631Z,60.91
2023-05-05T11:07:03.617Z,61.71
2023-05-05T11:08:03.599Z,62.71
2023-05-05T11:09:03.592Z,62.81
2023-05-05T11:10:03.624Z,62.41
2023-05-05T11:11:03.551Z,62.38
2023-05-05T11:12:03.537Z,62.58
2023-05-05T11:13:03.619Z,62.08
2023-05-05T11:14:03.518Z,60.81
2023-05-05T11:15:03.505Z,60.91
2023-05-05T11:16:03.508Z,60.94
2023-05-05T11:17:03.491Z,60.53
2023-05-05T11:18:07.029Z,61.04
2023-05-05T11:19:03.665Z,61.77
2023-05-05T11:20:03.771Z,61.36
2023-05-05T11:21:03.668Z,61.57
2023-05-05T11:22:03.443Z,62.27
2023-05-05T11:23:03.476Z,61.67
2023-05-05T11:24:03.607Z,61.87
2023-05-05T11:25:03.977Z,62.47
2023-05-05T11:26:03.373Z,60.97
2023-05-05T11:27:03.958Z,61.17
2023-05-05T11:28:03.330Z,62.07
2023-05-05T11:29:09.334Z,61.97
2023-05-05T11:30:03.326Z,62.77
2023-05-05T11:31:03.341Z,61.04
2023-05-05T11:32:03.290Z,61.84
2023-05-05T11:33:03.331Z,61.34
2023-05-05T11:34:03.252Z,61.04
2023-05-05T11:35:03.254Z,61.04
2023-05-05T11:36:05.787Z,61.04
2023-05-05T11:37:03.308Z,61.04
2023-05-05T11:38:03.206Z,61.44
2023-05-05T11:39:03.208Z,60.64
2023-05-05T11:40:03.206Z,60.94
2023-05-05T11:41:03.167Z,61.01
2023-05-05T11:42:09.403Z,59.91
2023-05-05T11:43:04.182Z,60.81
2023-05-05T11:44:03.127Z,60.21
2023-05-05T11:45:03.112Z,59.11
2023-05-05T11:46:03.140Z,60.51
2023-05-05T11:47:03.108Z,59.70
2023-05-05T11:48:03.098Z,60.91
2023-05-05T11:49:03.080Z,62.18
2023-05-05T11:50:03.055Z,60.28
2023-05-05T11:51:03.039Z,61.48
2023-05-05T11:52:03.132Z,62.08
2023-05-05T11:53:03.016Z,60.18
2023-05-05T11:54:03.008Z,60.48
2023-05-05T11:55:03.001Z,61.08
2023-05-05T11:56:02.974Z,61.28
2023-05-05T11:57:02.964Z,62.48
2023-05-05T11:58:02.949Z,61.88
2023-05-05T11:59:02.938Z,60.38
2023-05-05T12:00:02.940Z,60.18
2023-05-05T12:01:02.939Z,61.08
2023-05-05T12:02:02.913Z,60.98
2023-05-05T12:03:03.043Z,63.08
2023-05-05T12:04:03.064Z,61.28
2023-05-05T12:05:02.879Z,62.25
2023-05-05T12:06:02.847Z,60.75
2023-05-05T12:07:02.827Z,60.05
2023-05-05T12:08:02.922Z,61.05
2023-05-05T12:09:02.798Z,60.65
2023-05-05T12:10:02.793Z,62.35
2023-05-05T12:11:02.775Z,59.82
2023-05-05T12:12:02.779Z,62.22
2023-05-05T12:13:02.811Z,62.32
2023-05-05T12:14:02.746Z,60.99
2023-05-05T12:15:02.721Z,59.69
2023-05-05T12:16:02.772Z,59.79
2023-05-05T12:17:02.690Z,60.39
2023-05-05T12:18:03.445Z,62.59
2023-05-05T12:19:02.676Z,60.36
2023-05-05T12:20:02.667Z,58.76
2023-05-05T12:21:02.661Z,60.86
2023-05-05T12:22:02.635Z,61.16
2023-05-05T12:23:02.658Z,59.86
2023-05-05T12:24:02.654Z,59.97
2023-05-05T12:25:02.595Z,59.56
2023-05-05T12:26:02.592Z,58.26
2023-05-05T12:27:02.575Z,59.86
2023-05-05T12:28:02.590Z,57.17
2023-05-05T12:29:02.544Z,55.29
2023-05-05T12:30:02.530Z,55.89
2023-05-05T12:31:02.557Z,54.49
2023-05-05T12:32:02.563Z,54.69
2023-05-05T12:33:02.505Z,55.92
2023-05-05T12:34:02.497Z,56.02
2023-05-05T12:35:02.481Z,56.02
2023-05-05T12:36:02.462Z,56.85
2023-05-05T12:37:02.443Z,55.15
2023-05-05T12:38:02.446Z,55.44
2023-05-05T12:39:02.420Z,57.55
2023-05-05T12:40:02.515Z,55.55
2023-05-05T12:41:02.408Z,57.75
2023-05-05T12:42:02.383Z,55.67
2023-05-05T12:43:02.359Z,56.48
2023-05-05T12:44:02.345Z,55.98
2023-05-05T12:45:02.349Z,56.07
2023-05-05T12:46:02.437Z,55.98
2023-05-05T12:47:02.325Z,56.57
2023-05-05T12:48:02.333Z,56.07
2023-05-05T12:49:02.314Z,56.65
2023-05-05T12:50:02.282Z,57.65
2023-05-05T12:51:02.278Z,56.12
2023-05-05T12:52:02.274Z,55.62
2023-05-05T12:53:02.235Z,55.12